Time;durP1;ratioP1;P1;durP2;ratioP2;P2;SDS_P1;SDS_P2;PMS_P1;PMS_P2;Temp;Humidity;BMP_temperature;BMP_pressure;BME280_temperature;BME280_humidity;BME280_pressure;Samples;Min_cycle;Max_cycle;Signal;HPM_P1;HPM_P2
2022/07/27 00:01:02;;;;;;;5.05;3.65;;;17.30;99.90;;;;;;5068201;28;20047;-67
2022/07/27 00:03:28;;;;;;;5.63;3.50;;;17.20;99.90;;;;;;5068191;28;20036;-67
2022/07/27 00:05:54;;;;;;;5.32;3.60;;;17.20;99.90;;;;;;5050194;28;20035;-67
2022/07/27 00:08:19;;;;;;;4.18;3.55;;;17.30;99.90;;;;;;5069037;28;20041;-67
2022/07/27 00:10:45;;;;;;;4.95;3.40;;;17.20;99.90;;;;;;5066178;28;20032;-68
2022/07/27 00:13:11;;;;;;;7.20;3.55;;;17.10;99.90;;;;;;5069262;28;20036;-68
2022/07/27 00:15:36;;;;;;;5.78;3.90;;;17.10;99.90;;;;;;5066858;28;20138;-67
2022/07/27 00:18:02;;;;;;;6.90;3.90;;;17.10;99.90;;;;;;5067284;28;20062;-67
2022/07/27 00:20:29;;;;;;;4.07;3.33;;;16.90;99.90;;;;;;5066096;28;20033;-67
2022/07/27 00:22:55;;;;;;;5.47;3.78;;;16.90;99.90;;;;;;5068107;28;20025;-67
2022/07/27 00:25:21;;;;;;;4.97;3.80;;;16.90;99.90;;;;;;5066849;28;20103;-68
2022/07/27 00:27:47;;;;;;;4.88;3.70;;;16.90;99.90;;;;;;5065966;28;20028;-67
2022/07/27 00:30:13;;;;;;;6.00;3.50;;;16.80;99.90;;;;;;5068440;28;20109;-67
2022/07/27 00:32:39;;;;;;;5.15;3.97;;;16.80;99.90;;;;;;5065646;28;20021;-67
2022/07/27 00:35:05;;;;;;;5.82;3.70;;;16.70;99.90;;;;;;5067412;28;20431;-67
2022/07/27 00:37:31;;;;;;;5.05;3.97;;;16.70;99.90;;;;;;5067237;28;20051;-67
2022/07/27 00:39:56;;;;;;;4.95;3.92;;;16.60;99.90;;;;;;5066914;28;20033;-67
2022/07/27 00:42:26;;;;;;;6.72;4.00;;;16.60;99.90;;;;;;5067521;28;20033;-68
2022/07/27 00:44:53;;;;;;;5.68;3.72;;;16.60;99.90;;;;;;5065997;28;20459;-67
2022/07/27 00:47:19;;;;;;;4.97;3.97;;;16.50;99.90;;;;;;5068413;28;20037;-69
2022/07/27 00:49:45;;;;;;;5.88;3.63;;;16.40;99.90;;;;;;5067083;28;20107;-66
2022/07/27 00:52:11;;;;;;;5.13;4.00;;;16.40;99.90;;;;;;5070648;28;20120;-67
2022/07/27 00:54:37;;;;;;;6.55;4.13;;;16.40;99.90;;;;;;5069356;28;20029;-67
2022/07/27 00:57:04;;;;;;;4.78;3.70;;;16.30;99.90;;;;;;5058316;28;20462;-67
2022/07/27 00:59:31;;;;;;;6.63;3.83;;;16.40;99.90;;;;;;5069138;28;20067;-67
2022/07/27 01:01:57;;;;;;;6.88;3.65;;;16.40;99.90;;;;;;5066177;28;20035;-67
2022/07/27 01:04:22;;;;;;;5.25;3.70;;;16.40;99.90;;;;;;5070634;28;20021;-68
2022/07/27 01:06:48;;;;;;;8.07;4.00;;;16.50;99.90;;;;;;5069027;28;20085;-67
2022/07/27 01:11:58;;;;;;;5.93;3.95;;;16.20;99.90;;;;;;5068592;28;20085;-68
2022/07/27 01:14:24;;;;;;;8.23;4.03;;;16.10;99.90;;;;;;5070167;28;20440;-68
2022/07/27 01:16:50;;;;;;;8.45;4.57;;;16.00;99.90;;;;;;5068942;28;20198;-68
2022/07/27 01:19:16;;;;;;;9.70;4.00;;;16.00;99.90;;;;;;5071305;28;20529;-67
2022/07/27 01:21:42;;;;;;;6.68;4.07;;;16.00;99.90;;;;;;5069160;28;20417;-68
2022/07/27 01:24:08;;;;;;;5.15;3.55;;;16.10;99.90;;;;;;5070935;28;20025;-67
2022/07/27 01:26:35;;;;;;;5.63;4.13;;;16.10;99.90;;;;;;5067862;28;20071;-68
2022/07/27 01:29:01;;;;;;;6.25;4.20;;;16.00;99.90;;;;;;5071568;28;20145;-67
2022/07/27 01:31:27;;;;;;;6.22;4.13;;;15.90;99.90;;;;;;5071115;28;20040;-68
2022/07/27 01:33:53;;;;;;;6.90;4.07;;;15.80;99.90;;;;;;5070068;28;20470;-67
2022/07/27 01:36:19;;;;;;;6.95;4.20;;;15.80;99.90;;;;;;5069587;28;20032;-67
2022/07/27 01:38:45;;;;;;;5.97;4.10;;;15.80;99.90;;;;;;5070082;28;20515;-67
2022/07/27 01:41:12;;;;;;;5.72;3.95;;;15.90;99.90;;;;;;5069341;28;20024;-67
2022/07/27 01:43:38;;;;;;;6.18;3.90;;;15.80;99.90;;;;;;5069308;28;20036;-67
2022/07/27 01:46:04;;;;;;;6.53;4.20;;;15.70;99.90;;;;;;5068835;28;20040;-67
2022/07/27 01:48:29;;;;;;;6.28;4.30;;;15.80;99.90;;;;;;5070609;28;20035;-69
2022/07/27 01:50:55;;;;;;;14.23;4.50;;;15.80;99.90;;;;;;5069733;28;20032;-67
2022/07/27 01:53:22;;;;;;;5.82;4.75;;;15.90;99.90;;;;;;5071163;28;20115;-68
2022/07/27 01:55:49;;;;;;;5.93;4.05;;;16.00;99.90;;;;;;5068755;28;20036;-68
2022/07/27 01:58:15;;;;;;;6.32;3.97;;;15.90;99.90;;;;;;5067335;28;20021;-67
2022/07/27 02:00:41;;;;;;;7.20;4.10;;;15.90;99.90;;;;;;5069195;28;20028;-67
2022/07/27 02:03:08;;;;;;;7.50;3.70;;;15.80;99.90;;;;;;5070262;28;20094;-67
2022/07/27 02:05:35;;;;;;;5.03;3.45;;;15.70;99.90;;;;;;5067200;28;20090;-67
2022/07/27 02:08:02;;;;;;;7.95;4.15;;;15.60;99.90;;;;;;5069364;28;20071;-67
2022/07/27 02:10:27;;;;;;;6.80;3.90;;;15.50;99.90;;;;;;5069078;28;20037;-67
2022/07/27 02:12:53;;;;;;;8.48;4.40;;;15.40;99.90;;;;;;5068008;28;20081;-67
2022/07/27 02:15:26;;;;;;;6.63;4.15;;;15.30;99.90;;;;;;5068792;28;20135;-68
2022/07/27 02:17:53;;;;;;;10.15;4.35;;;15.50;99.90;;;;;;5067715;28;20036;-68
2022/07/27 02:20:22;;;;;;;5.55;4.38;;;15.50;99.90;;;;;;5069666;28;20466;-67
2022/07/27 02:22:48;;;;;;;6.38;4.47;;;15.40;99.90;;;;;;5069054;28;20115;-67
2022/07/27 02:25:15;;;;;;;6.75;4.20;;;15.40;99.90;;;;;;5067448;28;20096;-68
2022/07/27 02:27:42;;;;;;;5.65;3.85;;;15.40;99.90;;;;;;5067781;28;20039;-67
2022/07/27 02:30:09;;;;;;;9.27;4.25;;;15.50;99.90;;;;;;5068842;28;20037;-66
2022/07/27 02:32:35;;;;;;;7.20;4.05;;;15.60;99.90;;;;;;5068068;28;20024;-67
2022/07/27 02:35:01;;;;;;;5.97;4.13;;;15.60;99.90;;;;;;5068704;28;20484;-68
2022/07/27 02:37:26;;;;;;;6.65;4.43;;;15.70;99.90;;;;;;5070546;28;20364;-68
2022/07/27 02:39:52;;;;;;;8.40;4.47;;;15.70;99.90;;;;;;5068122;28;20178;-67
2022/07/27 02:42:18;;;;;;;7.20;4.43;;;15.70;99.90;;;;;;5066574;28;20028;-68
2022/07/27 02:44:44;;;;;;;6.97;4.60;;;15.50;99.90;;;;;;5064173;28;20043;-67
2022/07/27 02:47:10;;;;;;;6.32;4.28;;;15.30;99.90;;;;;;5065804;28;20032;-67
2022/07/27 02:49:36;;;;;;;8.40;4.90;;;15.20;99.90;;;;;;5068146;28;20035;-68
2022/07/27 02:52:03;;;;;;;5.22;4.40;;;15.10;99.90;;;;;;5067443;28;20258;-67
2022/07/27 02:54:31;;;;;;;8.98;4.65;;;15.10;99.90;;;;;;5063659;28;20029;-67
2022/07/27 02:56:59;;;;;;;6.32;4.32;;;15.10;99.90;;;;;;5065626;28;20466;-68
2022/07/27 02:59:25;;;;;;;7.65;4.55;;;15.00;99.90;;;;;;5048481;28;20028;-67
2022/07/27 03:01:51;;;;;;;6.40;4.55;;;15.10;99.90;;;;;;5068286;28;20024;-68
2022/07/27 03:04:17;;;;;;;7.68;4.38;;;15.10;99.90;;;;;;5068621;28;20481;-67
2022/07/27 03:06:43;;;;;;;8.07;4.93;;;15.10;99.90;;;;;;5066017;28;20168;-67
2022/07/27 03:09:09;;;;;;;6.82;4.55;;;15.10;99.90;;;;;;5067882;28;20483;-67
2022/07/27 03:11:36;;;;;;;6.03;4.63;;;15.20;99.90;;;;;;5065290;28;20024;-67
2022/07/27 03:14:01;;;;;;;7.05;4.40;;;15.20;99.90;;;;;;5064782;28;20054;-67
2022/07/27 03:16:27;;;;;;;11.63;5.32;;;15.20;99.90;;;;;;5066250;28;20084;-68
2022/07/27 03:18:53;;;;;;;5.95;4.28;;;15.10;99.90;;;;;;5065058;28;20191;-66
2022/07/27 03:21:18;;;;;;;5.95;4.80;;;15.00;99.90;;;;;;5065211;28;20035;-67
2022/07/27 03:23:44;;;;;;;6.95;4.80;;;14.90;99.90;;;;;;5066392;28;20059;-66
2022/07/27 03:26:10;;;;;;;8.27;4.30;;;14.90;99.90;;;;;;5068511;28;20036;-67
2022/07/27 03:28:36;;;;;;;6.55;5.20;;;14.80;99.90;;;;;;5068399;28;20100;-68
2022/07/27 03:31:02;;;;;;;9.63;5.15;;;14.80;99.90;;;;;;5067675;28;20462;-67
2022/07/27 03:33:28;;;;;;;6.78;4.68;;;14.90;99.90;;;;;;5071462;28;21183;-66
2022/07/27 03:35:54;;;;;;;6.95;4.50;;;15.00;99.90;;;;;;5068089;28;20099;-66
2022/07/27 03:38:21;;;;;;;6.80;4.60;;;14.90;99.90;;;;;;5068526;28;20378;-67
2022/07/27 03:40:47;;;;;;;8.77;4.63;;;14.80;99.90;;;;;;5067885;28;20033;-66
2022/07/27 03:43:13;;;;;;;6.85;4.28;;;14.80;99.90;;;;;;5069549;28;20024;-67
2022/07/27 03:45:39;;;;;;;6.95;4.53;;;14.80;99.90;;;;;;5067384;28;20406;-66
2022/07/27 03:48:05;;;;;;;9.45;4.40;;;14.80;99.90;;;;;;5068213;28;20162;-66
2022/07/27 03:50:31;;;;;;;6.70;4.30;;;14.80;99.90;;;;;;5067374;28;20032;-68
2022/07/27 03:52:56;;;;;;;9.27;4.68;;;14.80;99.90;;;;;;5068799;28;20077;-66
2022/07/27 03:55:22;;;;;;;7.75;4.10;;;14.80;99.90;;;;;;5063986;28;20025;-66
2022/07/27 03:57:49;;;;;;;6.50;4.55;;;14.90;99.90;;;;;;5061485;28;20040;-68
2022/07/27 04:00:15;;;;;;;8.15;4.53;;;15.00;99.90;;;;;;5067977;28;20021;-68
2022/07/27 04:02:41;;;;;;;7.20;5.05;;;15.00;99.90;;;;;;5067326;28;20386;-65
2022/07/27 04:05:07;;;;;;;5.38;4.03;;;15.00;99.90;;;;;;5067941;28;20093;-65
2022/07/27 04:07:33;;;;;;;5.47;4.47;;;15.00;99.90;;;;;;5068704;28;20114;-65
2022/07/27 04:09:59;;;;;;;6.57;4.43;;;15.00;99.90;;;;;;5066430;28;20503;-68
2022/07/27 04:12:24;;;;;;;6.18;4.75;;;14.90;99.90;;;;;;5067231;28;20029;-66
2022/07/27 04:14:50;;;;;;;6.03;5.05;;;14.90;99.90;;;;;;5067104;28;20025;-66
2022/07/27 04:17:16;;;;;;;7.05;5.15;;;14.80;99.90;;;;;;5068040;28;20112;-68
2022/07/27 04:19:42;;;;;;;7.95;4.75;;;14.80;99.90;;;;;;5048304;28;20047;-67
2022/07/27 04:22:07;;;;;;;10.45;5.43;;;14.80;99.90;;;;;;5060295;28;20024;-67
2022/07/27 04:24:33;;;;;;;8.73;4.90;;;14.90;99.90;;;;;;5067690;28;20021;-66
2022/07/27 04:26:59;;;;;;;11.70;5.22;;;15.00;99.90;;;;;;5068627;28;20043;-66
2022/07/27 04:29:24;;;;;;;10.80;4.82;;;15.00;99.90;;;;;;5071075;28;20029;-68
2022/07/27 04:31:50;;;;;;;12.48;5.25;;;15.00;99.90;;;;;;5070688;28;20685;-65
2022/07/27 04:34:16;;;;;;;5.88;4.80;;;15.00;99.90;;;;;;5071860;28;20378;-67
2022/07/27 04:36:41;;;;;;;8.00;5.50;;;14.90;99.90;;;;;;5071678;28;20071;-68
2022/07/27 04:39:07;;;;;;;7.00;4.88;;;15.00;99.90;;;;;;5071471;28;20021;-66
2022/07/27 04:41:33;;;;;;;6.70;4.88;;;15.00;99.90;;;;;;5054746;28;20484;-67
2022/07/27 04:43:58;;;;;;;6.63;4.78;;;15.00;99.90;;;;;;5070939;28;20022;-65
2022/07/27 04:46:24;;;;;;;9.00;5.10;;;15.10;99.90;;;;;;5072412;28;20082;-66
2022/07/27 04:48:50;;;;;;;7.45;5.07;;;15.10;99.90;;;;;;5069039;28;20032;-65
2022/07/27 04:51:17;;;;;;;6.10;4.53;;;15.10;99.90;;;;;;5071809;28;20029;-66
2022/07/27 04:53:43;;;;;;;11.05;5.07;;;15.10;99.90;;;;;;5069461;28;20097;-67
2022/07/27 04:56:09;;;;;;;7.00;4.60;;;15.00;99.90;;;;;;5071899;28;20029;-66
2022/07/27 04:58:35;;;;;;;8.68;4.88;;;15.20;99.90;;;;;;5071602;28;20489;-65
2022/07/27 05:01:01;;;;;;;6.63;5.03;;;15.20;99.90;;;;;;5070898;28;20042;-67
2022/07/27 05:03:26;;;;;;;6.53;5.05;;;15.30;99.90;;;;;;5070987;28;20024;-65
2022/07/27 05:05:52;;;;;;;8.88;5.05;;;15.30;99.90;;;;;;5069925;28;20049;-66
2022/07/27 05:08:18;;;;;;;8.07;5.20;;;15.40;99.90;;;;;;5071113;28;20032;-66
2022/07/27 05:10:44;;;;;;;10.23;5.13;;;15.50;99.90;;;;;;5069571;28;20490;-65
2022/07/27 05:13:10;;;;;;;9.95;5.03;;;15.50;99.90;;;;;;5069820;28;20125;-64
2022/07/27 05:15:36;;;;;;;6.50;5.00;;;15.40;99.90;;;;;;5070646;28;20460;-66
2022/07/27 05:18:02;;;;;;;11.13;5.10;;;15.50;99.90;;;;;;5069960;28;20233;-65
2022/07/27 05:20:28;;;;;;;8.13;4.78;;;15.50;99.90;;;;;;5071966;28;20021;-66
2022/07/27 05:22:54;;;;;;;6.05;4.70;;;15.60;99.90;;;;;;5067316;28;20433;-67
2022/07/27 05:25:20;;;;;;;5.95;4.82;;;15.60;99.90;;;;;;5071023;28;20021;-66
2022/07/27 05:27:46;;;;;;;7.85;4.90;;;15.60;99.90;;;;;;5069845;28;20363;-67
2022/07/27 05:30:13;;;;;;;7.00;5.03;;;15.60;99.90;;;;;;5070732;28;20033;-64
2022/07/27 05:32:38;;;;;;;9.27;5.50;;;15.50;99.90;;;;;;5069744;28;20029;-66
2022/07/27 05:35:04;;;;;;;8.68;5.40;;;15.60;99.90;;;;;;5066396;28;20435;-66
2022/07/27 05:37:30;;;;;;;5.90;4.95;;;15.80;99.90;;;;;;5071285;28;20066;-66
2022/07/27 05:39:56;;;;;;;10.07;5.18;;;15.90;99.90;;;;;;5069571;28;20056;-66
2022/07/27 05:42:22;;;;;;;9.05;4.75;;;16.00;99.90;;;;;;5070473;28;20149;-66
2022/07/27 05:44:51;;;;;;;9.07;5.10;;;16.10;99.90;;;;;;5070050;28;20115;-66
2022/07/27 05:47:17;;;;;;;6.95;4.88;;;16.10;99.90;;;;;;5070082;28;20033;-66
2022/07/27 05:49:42;;;;;;;7.15;5.22;;;16.20;99.90;;;;;;5070130;28;20512;-66
2022/07/27 05:52:08;;;;;;;7.85;5.07;;;16.20;99.90;;;;;;5070081;28;20115;-66
2022/07/27 05:54:34;;;;;;;6.72;4.70;;;16.30;99.90;;;;;;5069698;28;20107;-68
2022/07/27 05:56:59;;;;;;;8.25;5.40;;;16.30;99.90;;;;;;5069942;28;20033;-65
2022/07/27 05:59:25;;;;;;;9.88;5.65;;;16.40;99.90;;;;;;5066178;28;20020;-65
2022/07/27 06:01:51;;;;;;;12.57;5.38;;;16.50;99.90;;;;;;5070026;28;20474;-65
2022/07/27 06:04:16;;;;;;;6.78;5.10;;;16.60;99.90;;;;;;5067297;28;20025;-66
2022/07/27 06:09:26;;;;;;;10.50;6.10;;;16.70;99.90;;;;;;5070240;28;20112;-66
2022/07/27 06:11:52;;;;;;;12.15;6.80;;;16.80;99.90;;;;;;5069081;28;20103;-67
2022/07/27 06:14:17;;;;;;;10.35;5.70;;;16.90;99.90;;;;;;5069827;28;20025;-66
2022/07/27 06:16:43;;;;;;;10.50;5.28;;;17.00;99.90;;;;;;5069427;28;20056;-68
2022/07/27 06:19:09;;;;;;;11.20;6.47;;;17.20;99.90;;;;;;5069449;28;20033;-67
2022/07/27 06:21:35;;;;;;;10.30;6.75;;;17.20;99.90;;;;;;5068109;28;21401;-67
2022/07/27 06:24:00;;;;;;;11.30;7.00;;;17.40;99.90;;;;;;5067040;28;20028;-67
2022/07/27 06:26:26;;;;;;;8.63;6.45;;;17.50;99.90;;;;;;5069230;28;20040;-65
2022/07/27 06:28:57;;;;;;;14.55;7.03;;;17.50;99.90;;;;;;5069150;28;20736;-64
2022/07/27 06:31:26;;;;;;;13.45;7.13;;;17.50;99.90;;;;;;5069813;28;20466;-66
2022/07/27 06:33:53;;;;;;;14.02;7.22;;;17.50;99.90;;;;;;5069540;28;20425;-65
2022/07/27 06:36:19;;;;;;;14.00;6.40;;;17.50;99.90;;;;;;5069624;28;20070;-67
2022/07/27 06:38:45;;;;;;;11.27;6.70;;;17.50;99.90;;;;;;5069149;28;20036;-66
2022/07/27 06:41:11;;;;;;;12.15;6.70;;;17.60;99.90;;;;;;5070030;28;20085;-67
2022/07/27 06:43:37;;;;;;;10.35;7.53;;;17.70;99.90;;;;;;5068719;28;20436;-67
2022/07/27 06:46:05;;;;;;;10.20;6.93;;;17.80;99.90;;;;;;5068335;28;20076;-68
2022/07/27 06:48:32;;;;;;;10.40;6.90;;;17.80;99.90;;;;;;5068398;28;20089;-69
2022/07/27 06:50:58;;;;;;;11.68;6.72;;;17.80;99.90;;;;;;5067597;28;20060;-65
2022/07/27 06:53:24;;;;;;;11.88;7.07;;;17.90;99.90;;;;;;5067095;28;20035;-65
2022/07/27 06:55:51;;;;;;;9.45;6.63;;;17.90;99.90;;;;;;5068628;28;20155;-65
2022/07/27 06:58:17;;;;;;;11.35;6.57;;;18.00;99.90;;;;;;5069265;28;20111;-66
2022/07/27 07:00:44;;;;;;;12.05;7.70;;;18.10;99.90;;;;;;5069090;28;20437;-64
2022/07/27 07:03:10;;;;;;;14.10;7.20;;;18.10;99.90;;;;;;5065238;28;20038;-67
2022/07/27 07:05:44;;;;;;;12.02;7.57;;;18.10;99.90;;;;;;5065790;28;20024;-65
2022/07/27 07:08:10;;;;;;;13.05;7.80;;;18.20;99.90;;;;;;5057688;28;20119;-66
2022/07/27 07:10:38;;;;;;;14.35;8.27;;;18.40;99.90;;;;;;5069329;28;20025;-66
2022/07/27 07:13:05;;;;;;;11.18;7.25;;;18.60;99.90;;;;;;5068332;28;20109;-65
2022/07/27 07:15:32;;;;;;;12.00;7.32;;;18.60;99.90;;;;;;5068625;28;20533;-65
2022/07/27 07:17:57;;;;;;;12.50;8.10;;;18.80;99.90;;;;;;5068105;28;20037;-64
2022/07/27 07:20:23;;;;;;;12.00;7.53;;;18.90;99.90;;;;;;5067425;28;20086;-65
2022/07/27 07:22:49;;;;;;;15.25;7.18;;;19.10;99.90;;;;;;5068055;28;20513;-68
2022/07/27 07:25:15;;;;;;;10.88;7.10;;;19.40;99.90;;;;;;5068513;28;20380;-64
2022/07/27 07:27:41;;;;;;;12.82;7.35;;;19.80;99.90;;;;;;5069169;28;20032;-67
2022/07/27 07:30:07;;;;;;;29.13;7.72;;;20.00;99.90;;;;;;5069283;28;20066;-65
2022/07/27 07:32:33;;;;;;;10.23;7.18;;;20.00;99.90;;;;;;5076079;28;20032;-66
2022/07/27 07:35:00;;;;;;;10.50;7.15;;;20.30;99.90;;;;;;5066635;28;20119;-66
2022/07/27 07:37:26;;;;;;;21.00;6.75;;;20.50;99.90;;;;;;5068443;28;20090;-66
2022/07/27 07:39:51;;;;;;;9.65;6.78;;;20.70;99.90;;;;;;5067271;28;20033;-65
2022/07/27 07:42:17;;;;;;;14.90;6.10;;;20.80;99.90;;;;;;5069368;28;20082;-65
2022/07/27 07:44:43;;;;;;;13.13;7.22;;;20.90;99.90;;;;;;5068720;28;20116;-65
2022/07/27 07:47:08;;;;;;;7.18;6.10;;;20.80;99.90;;;;;;5068571;28;20174;-66
2022/07/27 07:49:34;;;;;;;11.35;7.53;;;20.80;99.90;;;;;;5068442;28;20432;-66
2022/07/27 07:52:01;;;;;;;10.27;6.88;;;20.60;99.90;;;;;;5067049;28;20074;-65
2022/07/27 07:54:26;;;;;;;12.52;7.15;;;20.40;99.90;;;;;;5068025;28;20033;-65
2022/07/27 07:56:52;;;;;;;11.48;6.97;;;20.40;99.90;;;;;;5067725;28;20054;-65
2022/07/27 07:59:18;;;;;;;9.38;6.60;;;20.40;99.90;;;;;;5069747;28;20113;-65
2022/07/27 08:01:44;;;;;;;12.30;7.38;;;20.40;99.90;;;;;;5071295;28;20450;-65
2022/07/27 08:04:09;;;;;;;11.68;7.07;;;20.50;99.90;;;;;;5070913;28;20032;-66
2022/07/27 08:06:35;;;;;;;16.30;7.45;;;20.60;99.90;;;;;;5071666;28;20117;-65
2022/07/27 08:09:01;;;;;;;16.45;7.60;;;20.70;99.90;;;;;;5070640;28;20458;-65
2022/07/27 08:11:27;;;;;;;10.40;7.80;;;20.80;99.90;;;;;;5073113;28;20059;-65
2022/07/27 08:13:53;;;;;;;21.55;7.15;;;20.80;99.90;;;;;;5070824;28;20036;-68
2022/07/27 08:16:18;;;;;;;10.85;7.75;;;20.80;99.90;;;;;;5070719;28;20053;-65
2022/07/27 08:18:44;;;;;;;14.32;8.15;;;20.80;99.90;;;;;;5072156;28;20035;-66
2022/07/27 08:21:09;;;;;;;13.10;7.57;;;20.90;99.90;;;;;;5070160;28;20025;-65
2022/07/27 08:23:36;;;;;;;12.88;7.78;;;21.00;99.90;;;;;;5070167;28;20020;-65
2022/07/27 08:26:02;;;;;;;10.57;7.45;;;20.90;99.90;;;;;;5071369;28;20103;-65
2022/07/27 08:28:28;;;;;;;11.18;7.82;;;20.90;99.90;;;;;;5072409;28;20490;-65
2022/07/27 08:30:54;;;;;;;10.70;7.22;;;20.90;99.90;;;;;;5071132;28;20076;-67
2022/07/27 08:33:19;;;;;;;11.45;7.38;;;21.00;99.90;;;;;;5071612;28;20036;-65
2022/07/27 08:35:45;;;;;;;10.18;7.75;;;20.90;99.90;;;;;;5072337;28;20039;-66
2022/07/27 08:38:11;;;;;;;10.27;6.55;;;20.80;99.90;;;;;;5069245;28;20040;-65
2022/07/27 08:40:38;;;;;;;13.48;7.45;;;20.80;99.90;;;;;;5072733;28;20032;-64
2022/07/27 08:43:05;;;;;;;13.60;7.10;;;21.10;99.90;;;;;;5070554;28;20489;-65
2022/07/27 08:45:32;;;;;;;12.77;6.60;;;21.30;99.90;;;;;;5071027;28;20044;-64
2022/07/27 08:47:58;;;;;;;11.68;7.32;;;21.30;99.90;;;;;;5071464;28;20486;-66
2022/07/27 08:50:29;;;;;;;12.43;6.85;;;21.40;99.90;;;;;;5070499;28;21036;-65
2022/07/27 08:53:15;;;;;;;10.00;7.20;;;21.40;99.90;;;;;;5070452;28;20457;-65
2022/07/27 08:55:46;;;;;;;9.90;6.43;;;21.50;99.90;;;;;;5070565;28;20036;-66
2022/07/27 08:58:13;;;;;;;8.23;6.50;;;21.60;99.90;;;;;;5071011;28;20024;-65
2022/07/27 09:00:42;;;;;;;13.32;6.40;;;21.50;99.90;;;;;;5071971;28;20204;-67
2022/07/27 09:03:10;;;;;;;8.35;6.32;;;21.60;99.90;;;;;;5070687;28;20032;-67
2022/07/27 09:05:44;;;;;;;8.63;6.22;;;21.90;99.90;;;;;;5070093;28;20021;-67
2022/07/27 09:08:15;;;;;;;8.30;6.18;;;22.00;99.90;;;;;;5070285;28;20024;-68
2022/07/27 09:10:41;;;;;;;13.73;6.72;;;22.10;99.90;;;;;;5070668;28;20047;-67
2022/07/27 09:13:19;;;;;;;14.70;6.22;;;22.30;99.90;;;;;;5069934;28;20619;-65
2022/07/27 09:15:51;;;;;;;8.80;6.45;;;22.30;99.90;;;;;;5071771;28;20520;-65
2022/07/27 09:18:25;;;;;;;9.77;6.13;;;22.30;99.90;;;;;;5070079;28;20397;-66
2022/07/27 09:21:11;;;;;;;9.40;6.15;;;22.30;99.90;;;;;;5070027;28;20441;-65
2022/07/27 09:23:38;;;;;;;29.33;6.70;;;22.20;99.90;;;;;;5048705;28;20028;-68
2022/07/27 09:26:20;;;;;;;8.82;6.47;;;22.30;99.90;;;;;;5070877;28;20926;-66
2022/07/27 09:28:46;;;;;;;23.15;7.15;;;22.40;99.90;;;;;;5070484;28;20036;-66
2022/07/27 09:31:15;;;;;;;11.73;7.45;;;22.50;99.90;;;;;;5078619;28;20028;-67
2022/07/27 09:33:42;;;;;;;13.07;6.78;;;22.50;99.90;;;;;;5070778;28;20025;-66
2022/07/27 09:36:08;;;;;;;13.45;7.10;;;22.30;99.90;;;;;;5070199;28;20025;-66
2022/07/27 09:38:34;;;;;;;11.60;6.72;;;22.40;99.90;;;;;;5069583;28;20039;-66
2022/07/27 09:41:05;;;;;;;16.92;6.40;;;22.60;99.90;;;;;;5069919;28;20025;-69
2022/07/27 09:43:47;;;;;;;8.68;6.10;;;22.80;99.90;;;;;;5070652;28;20395;-68
2022/07/27 09:46:13;;;;;;;13.60;7.13;;;23.00;99.90;;;;;;5069173;28;20040;-68
2022/07/27 09:48:39;;;;;;;12.38;7.00;;;23.10;99.90;;;;;;5067746;28;20039;-67
2022/07/27 09:51:08;;;;;;;16.27;8.10;;;23.30;99.90;;;;;;5067960;28;20046;-67
2022/07/27 09:53:35;;;;;;;8.82;5.88;;;23.30;99.90;;;;;;5068041;28;20025;-68
2022/07/27 09:56:05;;;;;;;8.52;5.80;;;23.50;99.90;;;;;;5069216;28;20033;-70
2022/07/27 09:58:58;;;;;;;13.93;6.40;;;23.40;99.90;;;;;;5070142;28;20070;-67
2022/07/27 10:01:29;;;;;;;10.70;5.53;;;23.70;99.90;;;;;;5065735;28;20610;-67
2022/07/27 10:04:06;;;;;;;8.95;6.28;;;23.90;99.90;;;;;;5068318;28;20491;-70
2022/07/27 10:06:32;;;;;;;8.70;5.45;;;24.20;99.90;;;;;;5070103;28;20033;-69
2022/07/27 10:09:00;;;;;;;13.82;5.70;;;24.80;99.80;;;;;;5066982;28;20394;-69
2022/07/27 10:11:27;;;;;;;6.40;5.30;;;25.10;99.30;;;;;;5069258;28;20024;-68
2022/07/27 10:13:55;;;;;;;14.35;5.63;;;25.20;98.20;;;;;;5065158;28;20044;-70
2022/07/27 10:16:26;;;;;;;10.73;5.50;;;25.10;96.70;;;;;;5056921;28;20403;-70
2022/07/27 10:19:04;;;;;;;9.30;5.65;;;24.90;98.50;;;;;;5069018;28;20071;-68
2022/07/27 10:21:31;;;;;;;8.63;5.80;;;24.90;96.70;;;;;;5052236;28;20025;-69
2022/07/27 10:24:06;;;;;;;9.52;4.70;;;24.90;97.20;;;;;;5064987;28;20077;-71
2022/07/27 10:26:41;;;;;;;8.75;5.22;;;24.90;95.60;;;;;;5070262;28;20055;-71
2022/07/27 10:29:12;;;;;;;9.38;5.00;;;25.00;96.40;;;;;;5067894;28;20166;-68
2022/07/27 10:32:00;;;;;;;12.20;5.28;;;25.20;96.30;;;;;;5067213;28;20036;-69
2022/07/27 10:34:40;;;;;;;12.13;6.35;;;25.50;97.40;;;;;;5056996;28;20041;-67
2022/07/27 10:37:08;;;;;;;8.70;5.40;;;25.50;93.70;;;;;;5068700;28;20032;-68
2022/07/27 10:39:37;;;;;;;5.90;4.43;;;25.40;95.10;;;;;;5068732;28;20028;-68
2022/07/27 10:42:23;;;;;;;10.48;5.07;;;25.50;95.40;;;;;;5052283;28;20029;-66
2022/07/27 10:45:13;;;;;;;9.98;5.00;;;25.90;95.10;;;;;;5069904;28;20040;-66
2022/07/27 10:47:41;;;;;;;10.63;5.10;;;25.90;93.50;;;;;;5068453;28;20454;-65
2022/07/27 10:50:16;;;;;;;5.78;4.22;;;26.10;92.40;;;;;;5068197;28;20040;-66
2022/07/27 10:53:04;;;;;;;5.63;4.53;;;26.20;91.60;;;;;;5069593;28;20025;-68
2022/07/27 10:55:30;;;;;;;7.53;5.10;;;26.70;92.70;;;;;;5059343;28;20032;-66
2022/07/27 10:58:14;;;;;;;10.70;4.90;;;26.50;91.30;;;;;;5068924;28;20674;-67
2022/07/27 11:00:49;;;;;;;5.30;4.47;;;25.90;90.90;;;;;;5062907;28;20090;-68
2022/07/27 11:03:21;;;;;;;5.78;3.70;;;25.90;90.50;;;;;;5067564;28;20039;-66
2022/07/27 11:06:00;;;;;;;12.40;4.20;;;25.70;90.60;;;;;;5068811;28;20028;-68
2022/07/27 11:08:33;;;;;;;8.20;4.18;;;25.30;90.10;;;;;;5068973;28;20027;-69
2022/07/27 11:10:59;;;;;;;5.97;4.20;;;24.90;92.50;;;;;;5069148;28;20029;-69
2022/07/27 11:13:26;;;;;;;7.28;4.35;;;24.50;92.90;;;;;;5065653;28;20075;-71
2022/07/27 11:16:05;;;;;;;8.20;4.95;;;24.20;94.80;;;;;;5066445;28;20056;-69
2022/07/27 11:18:34;;;;;;;7.00;4.30;;;24.00;94.10;;;;;;5069403;28;20028;-70
2022/07/27 11:21:21;;;;;;;6.35;4.75;;;23.80;94.80;;;;;;5050597;28;20478;-67
2022/07/27 11:23:50;;;;;;;7.95;4.65;;;23.70;95.60;;;;;;5066918;28;20031;-67
2022/07/27 11:26:16;;;;;;;6.28;4.60;;;23.70;96.90;;;;;;5067132;28;20595;-67
2022/07/27 11:28:42;;;;;;;8.32;4.85;;;23.70;95.70;;;;;;5067780;28;20078;-67
2022/07/27 11:31:10;;;;;;;10.43;4.50;;;23.70;94.80;;;;;;5068514;28;20040;-68
2022/07/27 11:33:47;;;;;;;8.45;4.20;;;23.60;94.60;;;;;;5066695;28;20020;-67
2022/07/27 11:36:13;;;;;;;6.47;4.82;;;23.60;95.50;;;;;;5068600;28;20037;-67
2022/07/27 11:38:54;;;;;;;8.43;4.00;;;23.70;94.70;;;;;;5067947;28;20676;-68
2022/07/27 11:41:28;;;;;;;6.18;4.07;;;24.30;93.00;;;;;;5049713;28;20036;-67
2022/07/27 11:43:58;;;;;;;7.70;4.60;;;24.70;91.70;;;;;;5068220;28;20032;-67
2022/07/27 11:46:29;;;;;;;8.02;3.88;;;25.40;93.10;;;;;;5067383;28;20165;-68
2022/07/27 11:49:01;;;;;;;8.02;3.70;;;25.60;86.10;;;;;;5067787;28;20048;-70
2022/07/27 11:51:28;;;;;;;4.88;3.72;;;25.70;84.30;;;;;;5066853;28;20035;-67
2022/07/27 11:54:07;;;;;;;8.40;3.90;;;25.70;86.90;;;;;;5067660;28;20407;-67
2022/07/27 11:56:36;;;;;;;10.32;3.92;;;25.70;86.80;;;;;;5068513;28;20045;-67
2022/07/27 11:59:12;;;;;;;7.03;3.72;;;25.30;87.10;;;;;;5067597;28;20470;-67
2022/07/27 12:01:59;;;;;;;10.85;4.20;;;25.00;90.10;;;;;;5068143;28;20036;-69
2022/07/27 12:04:31;;;;;;;8.85;4.30;;;24.70;93.00;;;;;;5067058;28;20647;-68
2022/07/27 12:07:09;;;;;;;6.07;4.40;;;24.60;92.70;;;;;;5067680;28;20382;-68
2022/07/27 12:09:42;;;;;;;4.90;4.00;;;24.40;92.60;;;;;;5064890;28;20029;-69
2022/07/27 12:12:15;;;;;;;9.50;4.20;;;24.40;93.10;;;;;;5066712;28;20028;-68
2022/07/27 12:14:42;;;;;;;6.30;4.45;;;24.40;92.00;;;;;;5066944;28;20028;-67
2022/07/27 12:17:17;;;;;;;5.97;4.25;;;24.40;92.30;;;;;;5067805;28;20053;-66
2022/07/27 12:19:50;;;;;;;5.72;4.20;;;24.40;91.50;;;;;;5068159;28;20485;-67
2022/07/27 12:22:32;;;;;;;10.35;4.38;;;24.40;92.10;;;;;;5049521;28;20025;-68
2022/07/27 12:24:59;;;;;;;6.00;4.03;;;24.30;91.50;;;;;;5068223;28;20032;-68
2022/07/27 12:27:25;;;;;;;4.88;3.80;;;24.70;91.60;;;;;;5066532;28;20470;-69
2022/07/27 12:30:11;;;;;;;4.78;3.97;;;25.00;90.00;;;;;;5067369;28;20077;-66
2022/07/27 12:32:46;;;;;;;9.93;3.97;;;25.60;88.40;;;;;;5066816;28;20037;-67
2022/07/27 12:35:33;;;;;;;6.63;3.80;;;26.40;84.80;;;;;;5066315;28;20398;-67
2022/07/27 12:38:01;;;;;;;8.05;3.58;;;26.80;84.40;;;;;;5050056;28;20049;-68
2022/07/27 12:40:28;;;;;;;7.57;4.03;;;26.40;84.10;;;;;;5067594;28;20725;-66
2022/07/27 12:43:04;;;;;;;5.55;3.85;;;25.40;84.20;;;;;;5067384;28;20060;-70
2022/07/27 12:45:36;;;;;;;7.72;3.80;;;25.30;86.50;;;;;;5067699;28;20031;-69
2022/07/27 12:48:10;;;;;;;8.10;3.63;;;25.40;85.60;;;;;;5070456;28;20028;-69
2022/07/27 12:50:37;;;;;;;4.57;3.40;;;25.70;86.60;;;;;;5072040;28;20058;-68
2022/07/27 12:53:03;;;;;;;4.70;3.33;;;26.40;86.80;;;;;;5069950;28;20129;-68